Esler Regional Airport Alexandria US
ICAO: KESF
IATA: ESF
Category: Medium
Scheduled Services: No

Elevation: 112 ft
TransAlt. 18000 ft.

Airport Communications:
POLK APP/DEP:132.05
CTAF/UNICOM:122.8
ARNG OPS:141.45
DE RIDDER RDO:122.55

KESF Zoom In..

If Map Doesn't Load, Click Here

Runways:

(A) RW 09 length 5999 ft width 150 ft
---- / hdg 90

(B) RW 14 length 5601 ft width 150 ft
---- / hdg 144

(C) RW 27 length 5999 ft width 150 ft
ILS 111.50 / hdg 270

(D) RW 32 length 5601 ft width 150 ft
---- / hdg 324

Location; KESF
Day. 21 / Time. 15.53 Zulu
* Altimeter: 30.04
* Temperature: 30° c. 86°f.
* Wind from: 150° Speed 04 kn.
Dewpoint: 24° c.
Visibility: 10 Statute Miles.
Clouds: Scattered 2500 ft.
Clouds: Broken 3100 ft.

KESF 211553Z AUTO 15004KT 10SM SCT025 BKN031 30/24 A3004 RMK AO2 SLP171 T03000244


Wind From 150°
Speed 04 kn.

 
 
jpsmedia.com for Web Design worldairports.se 2018   terms of use